Close sub menu
S&P
S&P 500 Index 7365,120 -- -- (22:41)
Stijgers 1 dag
Dalers 1 dag
Indices 1 dag
AEX* 1.027,74-0,4%
Midkap* 1.062,36-0,2%
AMS Next 20®* 1.667,52-0,2%
FTSE100 10.372,04-0,6%
Dow Jones 49.910,59--
NASDAQ 25.838,943--
S&P500 7.365,12--
S&P Future 7.400,25+0,1%
BEL20** 5.555,15+2,1%
CAC 40** 8.299,42+2,9%
DAX 24.929,730,0%
* real time    ** slotkoers
AandelenKoersVorige+/-+/- %HoogLaagVolumeTijd
3M Company 146,54 146,54 -- -- -- -- 760 22:00
Abbott Laboratories 86,30 86,30 -- -- -- -- 177.906 22:00
ABBVIE 205,03 205,03 -- -- -- -- 3.121 22:02
Accenture PLC 174,57 174,57 -- -- -- -- 29.508 22:00
Adobe 250,17 250,17 -- -- -- -- 86.432 22:00
Advanced Micro Devices 421,47 421,39 -- -- -- -- 1.149.203 22:00
AES Corp 14,34 14,34 -- -- -- -- 5.253 22:00
Aflac 113,40 113,40 -- -- -- -- 232 22:00
Agilent Technologies 117,69 117,69 -- -- -- -- 159 22:00
Air Products & Chemicals 300,21 300,21 -- -- -- -- 908 22:00
Airbnb 139,82 139,88 -- -- -- -- 10.028 22:00
Akamai Technologies 121,99 121,99 -- -- -- -- 14.668 22:00
Albemarle Corp 192,61 192,61 -- -- -- -- 51.323 22:00
Alexandria Real Estate Equities 45,83 45,83 -- -- -- -- 6.789 22:00
Align Technology 174,00 173,94 -- -- -- -- 60 22:00
Allegion Public Limited 135,33 135,33 -- -- -- -- 73.925 22:00
Alliant Energy Corp 72,31 72,31 -- -- -- -- 6 22:00
Allstate Corp (The) 217,92 217,92 -- -- -- -- 4.799 22:00
Alphabet 395,07 395,14 -- -- -- -- 396.915 22:00
Alphabet 397,82 398,04 -- -- -- -- 530.846 22:00
Altria Group 70,17 70,17 -- -- -- -- 10.636 22:00
Amazon.com 274,95 274,99 -- -- -- -- 381.048 22:00
Amcor Plc 40,21 40,21 -- -- -- -- 7.915 22:00
Ameren Corp 109,59 109,59 -- -- -- -- 2.599.278 22:00
American Electric Power Company 132,53 132,56 -- -- -- -- 3.486 22:00
American Express Company 321,90 321,90 -- -- -- -- 2.636 22:00
American International Group 77,69 77,69 -- -- -- -- 57 22:00
American Tower Corp 180,16 180,16 -- -- -- -- 58.073 22:00
American Water Works Company 125,68 125,68 -- -- -- -- 337 22:00
Ameriprise Financial 475,29 475,29 -- -- -- -- 30.485 22:00
Ametek 241,38 241,38 -- -- -- -- 139 22:00
Amgen 331,11 331,11 -- -- -- -- 4.892 22:00
Amphenol Corp 138,47 138,47 -- -- -- -- 186.922 22:00
Analog Devices 415,66 415,63 -- -- -- -- 33.011 22:00
AO Smith Corp 61,06 61,06 -- -- -- -- 415 22:00
Aon plc 308,27 308,27 -- -- -- -- 181.952 22:04
APA Corp 38,27 38,30 -- -- -- -- 14.752 22:00
Apollo Global Management 129,53 129,53 -- -- -- -- 1.054 22:00
Apple 287,46 287,51 -- -- -- -- 389.544 22:00
Applied Materials 428,50 428,62 -- -- -- -- 48.876 22:00
Applovin Corp 469,06 468,83 -- -- -- -- 359.664 22:00
Aptiv PLC 56,80 56,80 -- -- -- -- 220 22:00
Arch Capital Group Ltd 94,70 94,70 -- -- -- -- 217 22:00
Archer Daniels Midland Company 78,02 78,02 -- -- -- -- 2.857 22:00
Ares Management Corp 123,86 123,86 -- -- -- -- 333 22:00
Arista Networks Inc 147,01 147,06 -- -- -- -- 377.507 22:00
Arthur J Gallagher & Co 196,91 196,91 -- -- -- -- 123 22:00
Assurant 236,61 236,61 -- -- -- -- 98 22:00
AT&T 25,57 25,57 -- -- -- -- 102.048 22:01
Atmos Energy Corp 184,76 184,76 -- -- -- -- 12 22:03
Autodesk 243,10 243,08 -- -- -- -- 15.926 22:00
Automatic Data Processing 207,13 207,20 -- -- -- -- 1.138 22:00
AutoZone 3.541,79 3.541,79 -- -- -- -- 63 22:00
AvalonBay Communities 186,44 186,44 -- -- -- -- 125 22:00
Avery Dennison Corp 166,68 166,68 -- -- -- -- 60.156 22:00
Axon Enterprise 386,11 385,86 -- -- -- -- 18.151 22:00
Baker Hughes Company 66,65 66,67 -- -- -- -- 334.504 22:00
Ball Corp 59,00 59,00 -- -- -- -- 54 22:00
Bank of America Corp 53,60 53,60 -- -- -- -- 24.013 22:00
Bank of New York Mellon Corp 133,64 133,64 -- -- -- -- 457.214 22:00
Baxter International 16,98 16,98 -- -- -- -- 2.525 22:00
Becton Dickinson and Co 144,76 144,76 -- -- -- -- 5.605 22:00
Berkshire Hathaway 469,83 469,83 -- -- -- -- 36.149 22:00
Best Buy Company 58,69 58,69 -- -- -- -- 3.999 22:00
Biogen 190,67 190,68 -- -- -- -- 89 22:00
Bio-Techne Corp 47,41 47,41 -- -- -- -- 410 22:00
Blackrock 1.073,57 1.073,57 -- -- -- -- 338 22:00
Blackstone 124,69 124,69 -- -- -- -- 3.008 22:00
Block Inc 70,83 70,83 -- -- -- -- 23.629 22:03
Boeing Company 229,93 229,93 -- -- -- -- 30.555 22:00
Booking Holdings Inc. 168,31 168,32 -- -- -- -- 22.994 22:00
Boston Scientific Corp 56,00 56,00 -- -- -- -- 15.464 22:00
Bristol-Myers Squibb Co 56,54 56,59 -- -- -- -- 7.153 22:00
Broadcom Inc. 425,44 425,44 -- -- -- -- 524.668 22:00
Broadridge Financial Solutions 152,83 152,83 -- -- -- -- 319 22:00
Brown & Brown 56,56 56,56 -- -- -- -- 5.919 22:00
Brown-Forman Corp 26,98 26,98 -- -- -- -- 19 22:00
Builders FirstSource 80,03 80,03 -- -- -- -- 348 22:00
Bunge Global SA 126,05 126,05 -- -- -- -- 1.263 22:00
BXP Inc. 59,84 59,84 -- -- -- -- 76 22:00
C.H. Robinson Worldwide 168,55 168,59 -- -- -- -- 184 22:00
Cadence Design Systems 354,90 354,90 -- -- -- -- 5.588 22:00
Camden Property Trust 104,81 104,81 -- -- -- -- 46 22:00
Capital One Financial 193,40 193,40 -- -- -- -- 3.129 22:00
Cardinal Health 191,49 191,49 -- -- -- -- 1.332 22:00
Carnival Corporation Ltd. 27,52 27,52 -- -- -- -- 98.488 22:00
Carrier Global Corp 67,90 67,90 -- -- -- -- 3.342 22:00
Carvana Co 389,38 389,38 -- -- -- -- 4.042 22:00
Casey's General Stores 858,04 858,14 -- -- -- -- 11.763 22:00
Caterpillar 926,64 926,93 -- -- -- -- 10.118 22:00
Cboe Global Markets 346,00 346,00 -- -- -- -- 212 22:00
Cbre Group 145,16 145,16 -- -- -- -- 20 22:00
CDW Corp 108,95 109,00 -- -- -- -- 16.865 22:00
Cencora 252,74 252,74 -- -- -- -- 2.191 22:00
Centene Corp 55,33 55,33 -- -- -- -- 8.988 22:03
CenterPoint Energy 42,33 42,33 -- -- -- -- 221 22:00
CF Industries Holding 119,76 119,76 -- -- -- -- 27.077 22:04
Charles River Laboratories International 181,73 181,73 -- -- -- -- 2.011 22:00
Charles Schwab Corp (The) 92,15 92,15 -- -- -- -- 1.619 22:00
Charter Communications 156,43 156,52 -- -- -- -- 2.626 22:00
vorige 1 2 3 4 5 6 volgende 
Powered by

Schakel browser notificaties in

Schakel browser notificaties in om meldingen te ontvangen op dit apparaat.

Browser notificaties inschakelen

U heeft browser notificaties voor fd.nl eerder geweigerd. Ga naar browser instellingen en sta browser notificaties toe voor fd.nl. De precieze handelingen zijn afhankelijk van uw browser.

U volgt een onderwerp

Wanneer deze zoekterm in een artikel voorkomt, zult u deze terugvinden in Mijn nieuws onder ‘Eurobonds’.

Wilt u via de FD App meldingen ontvangen voor dit onderwerp?

Wilt u via de FD App meldingen ontvangen voor dit onderwerp?

Ons privacy statement is van toepassing.

Meldingen

Wanneer deze zoekterm in een artikel voorkomt, zult u deze terugvinden in Mijn nieuws onder ‘Eurobonds’.

Wilt u via de FD App meldingen ontvangen voor dit onderwerp?

Wilt u via de FD App meldingen ontvangen voor dit onderwerp?